Time;durP1;ratioP1;P1;durP2;ratioP2;P2;SDS_P1;SDS_P2;PMS_P1;PMS_P2;Temp;Humidity;BMP_temperature;BMP_pressure;BME280_temperature;BME280_humidity;BME280_pressure;Samples;Min_cycle;Max_cycle;Signal;HPM_P1;HPM_P2
2022/09/11 00:01:51;;;;;;;9.80;9.50;;;14.70;99.90;;;;;;5100484;28;20235;-78
2022/09/11 00:04:21;;;;;;;9.70;9.40;;;14.80;99.90;;;;;;5099646;28;20229;-81
2022/09/11 00:06:51;;;;;;;10.00;9.70;;;14.70;99.90;;;;;;5100380;28;20229;-81
2022/09/11 00:09:20;;;;;;;9.80;9.50;;;14.80;99.90;;;;;;5100643;28;20239;-81
2022/09/11 00:11:52;;;;;;;9.70;9.40;;;14.80;99.90;;;;;;5101041;28;20229;-81
2022/09/11 00:14:19;;;;;;;9.87;9.57;;;14.80;99.90;;;;;;5100600;28;20237;-81
2022/09/11 00:16:50;;;;;;;10.00;9.70;;;14.80;99.90;;;;;;5100218;28;20236;-81
2022/09/11 00:19:20;;;;;;;10.10;9.80;;;14.90;99.90;;;;;;5100540;28;20230;-81
2022/09/11 00:21:49;;;;;;;10.00;9.70;;;14.90;99.90;;;;;;5100660;28;20233;-81
2022/09/11 00:24:17;;;;;;;9.90;9.60;;;14.90;99.90;;;;;;5100294;28;20239;-81
2022/09/11 00:26:46;;;;;;;9.80;9.50;;;14.90;99.90;;;;;;5100218;28;20241;-81
2022/09/11 00:29:16;;;;;;;9.63;9.33;;;14.90;99.90;;;;;;5101120;28;20256;-81
2022/09/11 00:31:45;;;;;;;9.80;9.50;;;14.90;99.90;;;;;;5100461;28;20256;-80
2022/09/11 00:34:13;;;;;;;9.70;9.40;;;14.90;99.90;;;;;;5100443;28;20228;-81
2022/09/11 00:36:42;;;;;;;10.07;9.77;;;14.80;99.90;;;;;;5100554;28;20225;-81
2022/09/11 00:39:17;;;;;;;9.80;9.50;;;14.90;99.90;;;;;;5100556;28;20225;-81
2022/09/11 00:41:45;;;;;;;9.83;9.53;;;14.90;99.90;;;;;;5100210;28;20720;-81
2022/09/11 00:45:01;;;;;;;9.80;9.50;;;14.90;99.90;;;;;;5100673;28;20293;-81
2022/09/11 00:47:31;;;;;;;10.10;9.80;;;14.80;99.90;;;;;;5096841;28;20229;-81
2022/09/11 00:50:12;;;;;;;9.90;9.60;;;14.80;99.90;;;;;;5101768;28;20234;-81
2022/09/11 00:52:43;;;;;;;10.10;9.80;;;14.80;99.90;;;;;;5102049;28;20238;-81
2022/09/11 00:55:14;;;;;;;10.03;9.73;;;14.80;99.90;;;;;;5101906;28;20259;-82
2022/09/11 00:57:48;;;;;;;9.80;9.50;;;14.80;99.90;;;;;;5103371;28;20314;-80
2022/09/11 01:00:18;;;;;;;10.00;9.70;;;14.70;99.90;;;;;;5102395;28;20229;-81
2022/09/11 01:02:50;;;;;;;10.07;9.77;;;14.70;99.90;;;;;;5102415;28;20249;-81
2022/09/11 01:05:21;;;;;;;10.10;9.80;;;14.70;99.90;;;;;;5101666;28;20271;-80
2022/09/11 01:07:53;;;;;;;10.00;9.70;;;14.80;99.90;;;;;;5102242;28;20231;-81
2022/09/11 01:10:26;;;;;;;9.97;9.67;;;14.70;99.90;;;;;;5101829;28;20230;-81
2022/09/11 01:13:08;;;;;;;10.00;9.70;;;14.80;99.90;;;;;;5102745;28;20353;-81
2022/09/11 01:15:46;;;;;;;10.07;9.77;;;14.70;99.90;;;;;;5103137;28;20241;-81
2022/09/11 01:18:18;;;;;;;9.83;9.53;;;14.70;99.90;;;;;;5104203;28;20240;-81
2022/09/11 01:21:09;;;;;;;10.10;9.80;;;14.70;99.90;;;;;;5103568;28;20291;-81
2022/09/11 01:23:59;;;;;;;9.70;9.40;;;14.70;99.90;;;;;;5102171;28;20229;-81
2022/09/11 01:26:52;;;;;;;9.97;9.67;;;14.70;99.90;;;;;;5102856;28;20243;-82
2022/09/11 01:29:31;;;;;;;9.67;9.37;;;14.70;99.90;;;;;;5103213;28;20295;-81
2022/09/11 01:32:10;;;;;;;9.90;9.60;;;14.70;99.90;;;;;;5103616;28;20234;-82
2022/09/11 01:34:47;;;;;;;9.90;9.60;;;14.60;99.90;;;;;;5102267;28;20244;-82
2022/09/11 01:37:27;;;;;;;9.90;9.60;;;14.60;99.90;;;;;;5102449;28;20313;-82
2022/09/11 01:40:03;;;;;;;9.93;9.63;;;14.60;99.90;;;;;;5103096;28;20229;-81
2022/09/11 01:42:36;;;;;;;10.20;9.90;;;14.60;99.90;;;;;;5102394;28;20229;-82
2022/09/11 01:45:12;;;;;;;9.80;9.50;;;14.50;99.90;;;;;;5102609;28;20264;-82
2022/09/11 01:47:41;;;;;;;9.87;9.57;;;14.50;99.90;;;;;;5102693;28;20279;-81
2022/09/11 01:50:11;;;;;;;9.97;9.67;;;14.40;99.90;;;;;;5102447;28;20233;-82
2022/09/11 01:52:49;;;;;;;9.87;9.57;;;14.50;99.90;;;;;;5102448;28;20240;-81
2022/09/11 01:55:22;;;;;;;10.13;9.83;;;14.50;99.90;;;;;;5101743;28;20237;-81
2022/09/11 01:57:56;;;;;;;9.93;9.63;;;14.50;99.90;;;;;;5109743;28;20281;-81
2022/09/11 02:00:28;;;;;;;9.80;9.50;;;14.50;99.90;;;;;;5121427;27;20257;-81
2022/09/11 02:03:03;;;;;;;10.00;9.70;;;14.50;99.90;;;;;;5121707;27;20281;-81
2022/09/11 02:05:36;;;;;;;9.80;9.50;;;14.50;99.90;;;;;;5120913;27;20243;-82
2022/09/11 02:08:15;;;;;;;9.90;9.60;;;14.60;99.90;;;;;;5121563;27;20241;-81
2022/09/11 02:10:50;;;;;;;9.80;9.50;;;14.60;99.90;;;;;;5121617;27;20209;-81
2022/09/11 02:13:28;;;;;;;9.90;9.60;;;14.60;99.90;;;;;;5121523;27;20247;-81
2022/09/11 02:16:08;;;;;;;9.90;9.60;;;14.60;99.90;;;;;;5120334;27;20236;-82
2022/09/11 02:18:44;;;;;;;10.00;9.70;;;14.60;99.90;;;;;;5118457;28;20233;-83
2022/09/11 02:21:14;;;;;;;9.90;9.60;;;14.60;99.90;;;;;;5116028;28;20214;-82
2022/09/11 02:23:44;;;;;;;10.00;9.70;;;14.60;99.90;;;;;;5117472;28;20257;-81
2022/09/11 02:26:13;;;;;;;10.03;9.73;;;14.60;99.90;;;;;;5116512;28;20237;-82
2022/09/11 02:28:42;;;;;;;9.80;9.50;;;14.60;99.90;;;;;;5119669;28;20235;-82
2022/09/11 02:31:14;;;;;;;9.83;9.53;;;14.60;99.90;;;;;;5118209;27;20225;-81
2022/09/11 02:33:42;;;;;;;9.73;9.43;;;14.60;99.90;;;;;;5116154;28;20273;-81
2022/09/11 02:36:37;;;;;;;10.00;9.70;;;14.60;99.90;;;;;;5105094;28;20237;-82
2022/09/11 02:39:53;;;;;;;9.87;9.57;;;14.60;99.90;;;;;;5103029;28;20221;-81
2022/09/11 02:42:39;;;;;;;9.90;9.60;;;14.60;99.90;;;;;;5088797;28;20244;-82
2022/09/11 02:45:27;;;;;;;9.80;9.50;;;14.60;99.90;;;;;;5101795;28;20241;-81
2022/09/11 02:48:21;;;;;;;9.90;9.60;;;14.60;99.90;;;;;;5102295;28;20237;-81
2022/09/11 02:51:00;;;;;;;9.77;9.47;;;14.60;99.90;;;;;;5101374;28;20230;-82
2022/09/11 02:53:38;;;;;;;9.73;9.43;;;14.60;99.90;;;;;;5101041;28;20236;-81
2022/09/11 02:56:17;;;;;;;9.70;9.40;;;14.60;99.90;;;;;;5100900;28;20235;-81
2022/09/11 02:58:54;;;;;;;9.90;9.60;;;14.60;99.90;;;;;;5101027;28;20233;-81
2022/09/11 03:01:23;;;;;;;9.90;9.60;;;14.50;99.90;;;;;;5101062;28;20235;-81
2022/09/11 03:03:54;;;;;;;9.73;9.43;;;14.50;99.90;;;;;;5106444;28;20289;-80
2022/09/11 03:06:24;;;;;;;9.83;9.53;;;14.50;99.90;;;;;;5107372;28;20233;-81
2022/09/11 03:08:52;;;;;;;10.07;9.77;;;14.50;99.90;;;;;;5103332;28;20240;-81
2022/09/11 03:11:21;;;;;;;9.80;9.50;;;14.50;99.90;;;;;;5103674;28;20229;-82
2022/09/11 03:13:52;;;;;;;10.00;9.70;;;14.50;99.90;;;;;;5102947;28;20233;-82
2022/09/11 03:16:21;;;;;;;9.77;9.47;;;14.40;99.90;;;;;;5101973;28;20236;-82
2022/09/11 03:18:50;;;;;;;10.00;9.70;;;14.40;99.90;;;;;;5103037;28;20227;-81
2022/09/11 03:21:22;;;;;;;9.80;9.50;;;14.40;99.90;;;;;;5101759;28;20229;-81
2022/09/11 03:23:50;;;;;;;10.00;9.70;;;14.30;99.90;;;;;;5102535;28;20308;-81
2022/09/11 03:26:18;;;;;;;9.90;9.60;;;14.40;99.90;;;;;;5101249;28;20243;-81
2022/09/11 03:28:48;;;;;;;10.20;9.90;;;14.30;99.90;;;;;;5101550;28;21319;-81
2022/09/11 03:31:17;;;;;;;9.97;9.67;;;14.30;99.90;;;;;;5102355;28;20217;-81
2022/09/11 03:33:46;;;;;;;9.90;9.60;;;14.30;99.90;;;;;;5109608;28;20252;-80
2022/09/11 03:36:16;;;;;;;9.93;9.63;;;14.40;99.90;;;;;;5103259;28;20231;-81
2022/09/11 03:38:54;;;;;;;10.27;9.97;;;14.40;99.90;;;;;;5101436;28;20257;-81
2022/09/11 03:41:25;;;;;;;10.20;9.90;;;14.40;99.90;;;;;;5102090;28;20245;-81
2022/09/11 03:43:53;;;;;;;10.20;9.90;;;14.40;99.90;;;;;;5100559;28;20237;-82
2022/09/11 03:46:23;;;;;;;10.00;9.70;;;14.40;99.90;;;;;;5100277;28;20240;-81
2022/09/11 03:48:52;;;;;;;10.10;9.80;;;14.40;99.90;;;;;;5100554;28;20263;-81
2022/09/11 03:51:21;;;;;;;9.87;9.57;;;14.50;99.90;;;;;;5100647;28;20229;-81
2022/09/11 03:53:54;;;;;;;10.10;9.80;;;14.40;99.90;;;;;;5101604;28;20295;-82
2022/09/11 03:56:21;;;;;;;10.00;9.70;;;14.40;99.90;;;;;;5100781;28;20236;-81
2022/09/11 03:58:50;;;;;;;10.00;9.70;;;14.40;99.90;;;;;;5101239;28;20233;-81
2022/09/11 04:01:19;;;;;;;9.87;9.57;;;14.40;99.90;;;;;;5101225;28;20261;-81
2022/09/11 04:03:47;;;;;;;9.80;9.50;;;14.40;99.90;;;;;;5100386;28;20225;-82
2022/09/11 04:06:18;;;;;;;10.00;9.70;;;14.50;99.90;;;;;;5100905;28;20328;-81
2022/09/11 04:08:48;;;;;;;10.00;9.70;;;14.40;99.90;;;;;;5101091;28;20325;-82
2022/09/11 04:11:21;;;;;;;9.90;9.60;;;14.40;99.90;;;;;;5100781;28;20233;-82
2022/09/11 04:13:50;;;;;;;9.90;9.60;;;14.40;99.90;;;;;;5100774;28;20232;-81
2022/09/11 04:16:20;;;;;;;9.87;9.57;;;14.30;99.90;;;;;;5100172;28;20283;-82
2022/09/11 04:18:50;;;;;;;9.70;9.40;;;14.30;99.90;;;;;;5100980;28;20344;-81
2022/09/11 04:21:20;;;;;;;9.90;9.60;;;14.30;99.90;;;;;;5101059;28;20229;-81
2022/09/11 04:23:55;;;;;;;9.80;9.50;;;14.30;99.90;;;;;;5100203;28;20279;-82
2022/09/11 04:26:32;;;;;;;9.67;9.37;;;14.30;99.90;;;;;;5100334;28;20229;-81
2022/09/11 04:29:01;;;;;;;9.60;9.30;;;14.30;99.90;;;;;;5101091;28;20243;-82
2022/09/11 04:31:30;;;;;;;9.90;9.60;;;14.40;99.90;;;;;;5101107;28;20676;-81
2022/09/11 04:34:00;;;;;;;9.63;9.33;;;14.30;99.90;;;;;;5102166;28;20306;-81
2022/09/11 04:36:29;;;;;;;10.00;9.70;;;14.30;99.90;;;;;;5100820;28;20325;-81
2022/09/11 04:39:00;;;;;;;9.90;9.60;;;14.30;99.90;;;;;;5101417;28;20317;-81
2022/09/11 04:41:30;;;;;;;10.10;9.80;;;14.40;99.90;;;;;;5102758;28;20286;-81
2022/09/11 04:44:00;;;;;;;10.03;9.73;;;14.40;99.90;;;;;;5102442;28;20229;-82
2022/09/11 04:46:29;;;;;;;10.27;9.97;;;14.40;99.90;;;;;;5101253;28;20226;-82
2022/09/11 04:48:59;;;;;;;10.20;9.90;;;14.40;99.90;;;;;;5100951;28;20255;-80
2022/09/11 04:51:29;;;;;;;10.13;9.83;;;14.50;99.90;;;;;;5104667;28;20221;-82
2022/09/11 04:53:58;;;;;;;10.17;9.87;;;14.50;99.90;;;;;;5107453;28;20233;-82
2022/09/11 04:56:29;;;;;;;10.40;10.10;;;14.60;99.90;;;;;;5122059;28;20222;-81
2022/09/11 04:59:08;;;;;;;10.57;10.27;;;14.60;99.90;;;;;;5122311;27;20256;-81
2022/09/11 05:01:36;;;;;;;10.37;10.07;;;14.70;99.90;;;;;;5119735;28;20229;-81
2022/09/11 05:04:04;;;;;;;9.90;9.60;;;14.60;99.90;;;;;;5120840;28;20225;-80
2022/09/11 05:06:33;;;;;;;10.00;9.70;;;14.50;99.90;;;;;;5121037;28;20218;-80
2022/09/11 05:09:03;;;;;;;9.70;9.40;;;14.50;99.90;;;;;;5120675;28;20236;-80
2022/09/11 05:11:33;;;;;;;9.80;9.50;;;14.60;99.90;;;;;;5120530;28;20289;-80
2022/09/11 05:14:01;;;;;;;9.90;9.60;;;14.50;99.90;;;;;;5120287;28;20224;-84
2022/09/11 05:16:33;;;;;;;9.77;9.47;;;14.50;99.90;;;;;;5120679;27;20249;-80
2022/09/11 05:19:02;;;;;;;9.53;9.23;;;14.50;99.90;;;;;;5120969;28;20215;-81
2022/09/11 05:21:32;;;;;;;9.70;9.40;;;14.50;99.90;;;;;;5120314;27;20285;-80
2022/09/11 05:24:01;;;;;;;9.80;9.50;;;14.50;99.90;;;;;;5120314;28;20225;-80
2022/09/11 05:26:38;;;;;;;9.70;9.40;;;14.50;99.90;;;;;;5109252;28;20234;-81
2022/09/11 05:29:17;;;;;;;9.90;9.60;;;14.50;99.90;;;;;;5102073;28;20259;-80
2022/09/11 05:31:46;;;;;;;9.70;9.40;;;14.50;99.90;;;;;;5102343;28;20229;-81
2022/09/11 05:34:15;;;;;;;9.40;9.10;;;14.60;99.90;;;;;;5107505;28;20233;-81
2022/09/11 05:36:44;;;;;;;9.80;9.50;;;14.60;99.90;;;;;;5101448;28;20289;-81
2022/09/11 05:39:14;;;;;;;9.40;9.10;;;14.60;99.90;;;;;;5108959;28;20314;-81
2022/09/11 05:41:45;;;;;;;9.50;9.20;;;14.70;99.90;;;;;;5119778;28;20214;-81
2022/09/11 05:44:12;;;;;;;9.67;9.37;;;14.80;99.90;;;;;;5119032;28;20285;-80
2022/09/11 05:46:41;;;;;;;9.80;9.50;;;14.80;99.90;;;;;;5103277;28;20312;-81
2022/09/11 05:49:09;;;;;;;9.90;9.60;;;14.80;99.90;;;;;;5101519;28;20332;-81
2022/09/11 05:51:42;;;;;;;9.60;9.30;;;14.90;99.90;;;;;;5102201;28;20235;-81
2022/09/11 05:54:10;;;;;;;9.50;9.20;;;14.90;99.90;;;;;;5101153;28;20289;-81
2022/09/11 05:56:40;;;;;;;9.67;9.37;;;15.00;99.90;;;;;;5100857;28;20233;-81
2022/09/11 05:59:19;;;;;;;9.60;9.30;;;15.00;99.90;;;;;;5115787;28;20230;-81
2022/09/11 06:01:47;;;;;;;9.63;9.33;;;14.90;99.90;;;;;;5117733;28;20320;-81
2022/09/11 06:04:17;;;;;;;9.40;9.10;;;14.90;99.90;;;;;;5103902;28;20248;-82
2022/09/11 06:06:46;;;;;;;9.37;9.07;;;14.90;99.90;;;;;;5101751;28;20276;-81
2022/09/11 06:09:16;;;;;;;9.40;9.10;;;14.90;99.90;;;;;;5101755;28;20265;-81
2022/09/11 06:11:45;;;;;;;9.25;8.95;;;15.00;99.90;;;;;;5102003;28;20225;-81
2022/09/11 06:14:14;;;;;;;9.40;9.10;;;15.00;99.90;;;;;;5101375;28;20285;-81
2022/09/11 06:16:43;;;;;;;9.23;8.93;;;15.10;99.90;;;;;;5101339;28;20324;-81
2022/09/11 06:19:13;;;;;;;9.60;9.30;;;15.10;99.90;;;;;;5102457;28;20229;-81
2022/09/11 06:21:41;;;;;;;9.47;9.17;;;15.20;99.90;;;;;;5101367;28;20241;-81
2022/09/11 06:24:11;;;;;;;9.60;9.30;;;15.20;99.90;;;;;;5101716;28;20272;-80
2022/09/11 06:26:45;;;;;;;9.70;9.40;;;15.10;99.90;;;;;;5100897;28;20233;-81
2022/09/11 06:29:15;;;;;;;9.60;9.30;;;15.20;99.90;;;;;;5101570;28;20248;-81
2022/09/11 06:31:42;;;;;;;9.65;9.35;;;15.20;99.90;;;;;;5101498;28;20230;-81
2022/09/11 06:34:10;;;;;;;9.50;9.20;;;15.20;99.90;;;;;;5100751;28;20225;-81
2022/09/11 06:36:39;;;;;;;9.30;9.00;;;15.20;99.90;;;;;;5100673;28;20251;-81
2022/09/11 06:39:13;;;;;;;9.50;9.20;;;15.20;99.90;;;;;;5101443;28;20289;-81
2022/09/11 06:41:41;;;;;;;9.67;9.37;;;15.30;99.90;;;;;;5101894;28;20237;-81
2022/09/11 06:44:09;;;;;;;9.50;9.20;;;15.30;99.90;;;;;;5100808;28;20294;-81
2022/09/11 06:46:44;;;;;;;9.30;9.00;;;15.30;99.90;;;;;;5100995;28;20232;-81
2022/09/11 06:49:20;;;;;;;9.47;9.17;;;15.40;99.90;;;;;;5100316;28;20249;-81
2022/09/11 06:51:48;;;;;;;9.85;9.55;;;15.30;99.90;;;;;;5100943;28;20348;-81
2022/09/11 06:54:16;;;;;;;9.63;9.33;;;15.30;99.90;;;;;;5100909;28;20238;-81
2022/09/11 06:56:45;;;;;;;9.87;9.57;;;15.30;99.90;;;;;;5102346;28;20226;-81
2022/09/11 06:59:14;;;;;;;10.00;9.70;;;15.30;99.90;;;;;;5110547;28;20241;-81
2022/09/11 07:01:51;;;;;;;9.60;9.30;;;15.40;99.90;;;;;;5102160;28;20221;-82
2022/09/11 07:04:22;;;;;;;9.30;9.00;;;15.30;99.90;;;;;;5100150;28;20234;-81
2022/09/11 07:06:51;;;;;;;9.30;9.00;;;15.30;99.90;;;;;;5100431;28;20241;-81
2022/09/11 07:09:21;;;;;;;9.45;9.15;;;15.40;99.90;;;;;;5100764;28;20295;-81
2022/09/11 07:11:50;;;;;;;9.70;9.40;;;15.40;99.90;;;;;;5100885;28;20225;-81
2022/09/11 07:14:20;;;;;;;9.30;9.00;;;15.40;99.90;;;;;;5100523;28;20226;-81
2022/09/11 07:16:54;;;;;;;9.87;9.57;;;15.40;99.90;;;;;;5100597;28;20237;-81
2022/09/11 07:19:23;;;;;;;9.80;9.50;;;15.40;99.90;;;;;;5100174;28;20740;-80
2022/09/11 07:21:51;;;;;;;9.40;9.10;;;15.40;99.90;;;;;;5100110;28;20221;-81
2022/09/11 07:24:19;;;;;;;9.50;9.20;;;15.40;99.90;;;;;;5099421;28;20233;-81
2022/09/11 07:26:47;;;;;;;9.20;8.90;;;15.40;99.90;;;;;;5100658;28;20229;-81
2022/09/11 07:29:16;;;;;;;9.50;9.20;;;15.40;99.90;;;;;;5100297;28;20233;-81
2022/09/11 07:31:46;;;;;;;9.30;9.00;;;15.50;99.90;;;;;;5100187;28;20225;-81
2022/09/11 07:34:22;;;;;;;9.43;9.13;;;15.60;99.90;;;;;;5099919;28;20230;-81
2022/09/11 07:36:51;;;;;;;9.43;9.13;;;15.70;99.90;;;;;;5100118;28;20255;-81
2022/09/11 07:39:25;;;;;;;9.10;8.80;;;15.80;99.90;;;;;;5106591;28;20233;-81
2022/09/11 07:41:53;;;;;;;9.07;8.77;;;15.90;99.90;;;;;;5104641;28;20265;-81
2022/09/11 07:44:22;;;;;;;9.20;8.90;;;16.00;99.90;;;;;;5102435;28;20234;-81
2022/09/11 07:46:51;;;;;;;9.38;9.07;;;16.10;99.90;;;;;;5102720;28;20275;-81
2022/09/11 07:49:26;;;;;;;9.20;8.90;;;16.10;99.90;;;;;;5101320;28;20287;-81
2022/09/11 07:52:00;;;;;;;9.27;8.98;;;16.10;99.90;;;;;;5099980;28;20240;-81
2022/09/11 07:54:29;;;;;;;9.15;8.85;;;16.20;99.90;;;;;;5099227;28;20239;-82
2022/09/11 07:56:58;;;;;;;8.80;8.60;;;16.20;99.90;;;;;;5100028;28;20263;-81
2022/09/11 07:59:28;;;;;;;8.65;8.45;;;16.20;99.90;;;;;;5100426;28;20247;-81
2022/09/11 08:01:58;;;;;;;8.90;8.70;;;16.20;99.90;;;;;;5100458;28;20236;-81
2022/09/11 08:04:29;;;;;;;8.30;8.10;;;16.20;99.90;;;;;;5099223;28;20240;-81
2022/09/11 08:06:56;;;;;;;8.35;8.15;;;16.30;99.90;;;;;;5099585;28;20300;-81
2022/09/11 08:09:27;;;;;;;8.65;8.45;;;16.20;99.90;;;;;;5101052;28;20249;-81
2022/09/11 08:11:57;;;;;;;8.43;8.23;;;16.30;99.90;;;;;;5102058;28;20240;-81
2022/09/11 08:14:26;;;;;;;8.90;8.70;;;16.30;99.90;;;;;;5101829;28;20320;-82
2022/09/11 08:16:53;;;;;;;8.60;8.40;;;16.20;99.90;;;;;;5101375;28;20241;-81
2022/09/11 08:19:24;;;;;;;8.40;8.20;;;16.30;99.90;;;;;;5102201;28;20255;-81
2022/09/11 08:21:53;;;;;;;8.80;8.60;;;16.30;99.90;;;;;;5102298;28;20237;-81
2022/09/11 08:24:23;;;;;;;8.52;8.32;;;16.30;99.90;;;;;;5102088;28;20221;-81
2022/09/11 08:26:52;;;;;;;8.70;8.50;;;16.40;99.90;;;;;;5105685;28;20225;-81
2022/09/11 08:29:20;;;;;;;8.80;8.60;;;16.50;99.90;;;;;;5105353;28;20247;-81
2022/09/11 08:31:50;;;;;;;8.65;8.45;;;16.40;99.90;;;;;;5104873;28;20313;-81
2022/09/11 08:34:21;;;;;;;9.00;8.73;;;16.40;99.90;;;;;;5105171;28;20293;-81
2022/09/11 08:36:50;;;;;;;8.70;8.50;;;16.50;99.90;;;;;;5105236;28;20230;-81
2022/09/11 08:39:21;;;;;;;8.95;8.75;;;16.60;99.90;;;;;;5104070;28;20229;-81
2022/09/11 08:41:59;;;;;;;9.05;8.82;;;16.60;99.90;;;;;;5104748;28;20256;-81
2022/09/11 08:44:32;;;;;;;8.80;8.60;;;16.50;99.90;;;;;;5102553;28;20221;-80
2022/09/11 08:47:06;;;;;;;8.40;8.20;;;16.50;99.90;;;;;;5104945;28;20312;-81
2022/09/11 08:49:41;;;;;;;8.43;8.23;;;16.40;99.90;;;;;;5105679;28;20241;-81
2022/09/11 08:52:13;;;;;;;9.07;8.80;;;16.40;99.90;;;;;;5105171;28;20233;-81
2022/09/11 08:57:39;;;;;;;8.57;8.38;;;16.50;99.90;;;;;;5105948;28;20275;-81
2022/09/11 09:00:18;;;;;;;8.60;8.40;;;16.60;99.90;;;;;;5106151;28;20301;-80
2022/09/11 09:03:29;;;;;;;8.73;8.52;;;16.70;99.90;;;;;;5108025;28;20368;-81
2022/09/11 09:06:10;;;;;;;8.68;8.48;;;16.80;99.90;;;;;;5109272;28;20272;-81
2022/09/11 09:08:50;;;;;;;8.90;8.65;;;16.80;99.90;;;;;;5107035;28;20245;-81
2022/09/11 09:11:34;;;;;;;8.90;8.70;;;16.70;99.90;;;;;;5104789;28;20245;-80
2022/09/11 09:14:36;;;;;;;9.10;8.80;;;16.80;99.90;;;;;;5105752;28;20226;-81
2022/09/11 09:17:09;;;;;;;8.82;8.63;;;16.80;99.90;;;;;;5119704;27;20294;-80
2022/09/11 09:19:45;;;;;;;8.93;8.73;;;16.80;99.90;;;;;;5114610;28;20294;-81
2022/09/11 09:22:19;;;;;;;8.98;8.73;;;16.90;99.90;;;;;;5105128;28;20229;-78
2022/09/11 09:24:51;;;;;;;9.00;8.70;;;17.00;99.90;;;;;;5102687;28;20232;-79
2022/09/11 09:27:27;;;;;;;9.15;8.85;;;17.20;99.90;;;;;;5104286;28;20221;-81
2022/09/11 09:29:55;;;;;;;9.15;8.85;;;17.30;99.90;;;;;;5103682;28;20237;-81
2022/09/11 09:32:31;;;;;;;9.00;8.70;;;17.30;99.90;;;;;;5104096;28;20221;-81
2022/09/11 09:35:06;;;;;;;9.05;8.80;;;17.10;99.90;;;;;;5103409;28;20298;-81
2022/09/11 09:37:37;;;;;;;9.10;8.80;;;17.10;99.90;;;;;;5103060;28;20260;-81
2022/09/11 09:40:09;;;;;;;8.70;8.50;;;17.20;99.90;;;;;;5104090;28;20230;-80
2022/09/11 09:43:13;;;;;;;8.90;8.70;;;17.30;99.90;;;;;;5104721;28;20236;-81
2022/09/11 09:45:53;;;;;;;9.27;8.98;;;17.60;99.90;;;;;;5110737;28;20281;-81
2022/09/11 09:48:21;;;;;;;8.90;8.70;;;17.90;99.90;;;;;;5106878;28;20253;-81
2022/09/11 09:50:57;;;;;;;8.90;8.70;;;18.00;99.90;;;;;;5121646;28;20217;-81
2022/09/11 09:53:39;;;;;;;8.80;8.60;;;18.10;99.90;;;;;;5121623;27;20244;-80
2022/09/11 09:56:07;;;;;;;8.73;8.52;;;18.00;99.90;;;;;;5120791;27;20289;-81
2022/09/11 09:58:45;;;;;;;8.80;8.60;;;18.00;99.90;;;;;;5121258;27;20233;-80
2022/09/11 10:01:49;;;;;;;8.93;8.73;;;18.10;99.90;;;;;;5120069;28;20312;-80
2022/09/11 10:04:26;;;;;;;9.38;9.07;;;18.20;99.90;;;;;;5120540;28;20260;-80
2022/09/11 10:07:06;;;;;;;9.15;8.85;;;18.30;99.90;;;;;;5121051;27;20205;-80
2022/09/11 10:09:35;;;;;;;9.18;8.88;;;18.50;99.90;;;;;;5120163;28;20247;-80
2022/09/11 10:12:06;;;;;;;9.20;8.90;;;18.60;99.90;;;;;;5119525;27;20239;-80
2022/09/11 10:14:49;;;;;;;9.20;8.90;;;18.70;99.90;;;;;;5119068;28;20257;-81
2022/09/11 10:17:31;;;;;;;9.13;8.82;;;18.90;99.90;;;;;;5120278;28;20260;-80
2022/09/11 10:20:24;;;;;;;8.85;8.65;;;19.10;99.90;;;;;;5118723;27;20213;-81
2022/09/11 10:22:56;;;;;;;8.73;8.52;;;19.20;99.90;;;;;;5114935;28;20287;-81
2022/09/11 10:25:25;;;;;;;8.70;8.50;;;19.00;99.90;;;;;;5110108;28;20244;-80
2022/09/11 10:28:03;;;;;;;8.90;8.70;;;18.90;99.90;;;;;;5111550;28;20249;-81
2022/09/11 10:30:35;;;;;;;8.68;8.48;;;18.90;99.90;;;;;;5114198;28;20248;-80
2022/09/11 10:33:09;;;;;;;9.20;8.90;;;18.80;99.90;;;;;;5115739;28;20252;-80
2022/09/11 10:35:37;;;;;;;9.20;8.90;;;19.00;99.90;;;;;;5114790;28;20240;-81
2022/09/11 10:38:20;;;;;;;9.50;9.20;;;19.50;99.90;;;;;;5109651;28;20233;-81
2022/09/11 10:41:18;;;;;;;9.65;9.35;;;20.00;99.90;;;;;;5111304;28;20214;-80
2022/09/11 10:43:51;;;;;;;9.60;9.30;;;20.70;99.90;;;;;;5110378;28;20241;-80
2022/09/11 10:46:44;;;;;;;9.70;9.40;;;21.00;99.90;;;;;;5109315;28;20241;-81
2022/09/11 10:49:20;;;;;;;9.48;9.18;;;21.20;99.90;;;;;;5109444;28;20261;-81
2022/09/11 10:52:18;;;;;;;9.60;9.30;;;21.20;99.90;;;;;;5114276;28;20247;-80
2022/09/11 10:54:59;;;;;;;9.60;9.30;;;20.90;99.90;;;;;;5110429;28;20248;-80
2022/09/11 10:57:32;;;;;;;9.23;8.93;;;20.70;99.90;;;;;;5112866;28;20229;-80
2022/09/11 11:00:10;;;;;;;9.50;9.20;;;20.60;99.90;;;;;;5108805;28;20268;-80
2022/09/11 11:02:48;;;;;;;9.30;9.00;;;20.30;99.90;;;;;;5110608;28;20210;-80
2022/09/11 11:05:24;;;;;;;8.90;8.70;;;20.30;99.90;;;;;;5107579;28;20309;-80
2022/09/11 11:08:23;;;;;;;9.23;8.93;;;20.20;99.90;;;;;;5107800;28;20280;-80
2022/09/11 11:11:13;;;;;;;8.73;8.52;;;19.50;99.90;;;;;;5105189;28;20241;-80
2022/09/11 11:13:59;;;;;;;8.98;8.75;;;19.10;99.90;;;;;;5105784;28;20523;-80
2022/09/11 11:16:45;;;;;;;9.20;8.90;;;18.90;99.90;;;;;;5140209;22;20241;-88
2022/09/11 11:19:57;;;;;;;9.30;9.00;;;18.90;99.90;;;;;;5101107;28;20290;-89
2022/09/11 11:22:53;;;;;;;10.00;9.70;;;19.00;99.90;;;;;;5100523;28;20236;-88
2022/09/11 11:25:33;;;;;;;9.50;9.20;;;20.00;99.90;;;;;;5099958;28;20320;-89
2022/09/11 11:28:17;;;;;;;9.27;8.98;;;20.80;99.90;;;;;;5100490;28;20229;-89
2022/09/11 11:31:06;;;;;;;9.07;8.80;;;21.10;99.90;;;;;;5099896;28;21059;-90
2022/09/11 11:37:06;;;;;;;9.40;9.10;;;20.90;99.90;;;;;;5099571;28;20221;-89
2022/09/11 11:39:54;;;;;;;9.50;9.20;;;20.30;99.90;;;;;;5100086;28;20236;-89
2022/09/11 11:42:30;;;;;;;9.05;8.75;;;20.10;99.90;;;;;;5108784;28;20233;-89
2022/09/11 11:45:09;;;;;;;9.20;8.90;;;19.90;99.90;;;;;;5117245;27;20237;-90
2022/09/11 11:47:47;;;;;;;9.65;9.35;;;19.70;99.90;;;;;;5120265;27;20221;-89
2022/09/11 11:53:31;;;;;;;9.68;9.38;;;20.60;99.90;;;;;;5118589;28;20201;-90
2022/09/11 11:56:18;;;;;;;9.80;9.50;;;21.20;99.90;;;;;;5102929;28;20292;-89
2022/09/11 11:58:56;;;;;;;10.02;9.73;;;21.60;99.90;;;;;;5101881;28;20312;-89
2022/09/11 12:01:36;;;;;;;10.10;9.80;;;22.20;99.90;;;;;;5102553;28;20225;-89
2022/09/11 12:04:23;;;;;;;10.55;10.25;;;22.40;99.90;;;;;;5102522;28;20255;-90
2022/09/11 12:06:51;;;;;;;10.40;10.10;;;22.50;99.90;;;;;;5101070;28;20226;-89
2022/09/11 12:09:22;;;;;;;10.30;10.00;;;22.30;99.90;;;;;;5100129;28;20361;-89
2022/09/11 12:11:59;;;;;;;10.15;9.85;;;21.90;99.90;;;;;;5099693;28;20233;-89
2022/09/11 12:14:31;;;;;;;10.38;10.07;;;21.90;99.90;;;;;;5099269;28;20283;-89
2022/09/11 12:17:26;;;;;;;10.30;10.00;;;22.20;99.90;;;;;;5099617;28;20291;-90
2022/09/11 12:20:37;;;;;;;10.20;9.90;;;22.20;99.90;;;;;;5099916;28;20218;-89
2022/09/11 12:23:34;;;;;;;10.20;9.90;;;21.80;99.90;;;;;;5095136;28;20259;-89
2022/09/11 12:26:19;;;;;;;10.10;9.80;;;21.50;99.90;;;;;;5100139;28;20234;-89
2022/09/11 12:28:50;;;;;;;9.65;9.35;;;21.00;99.90;;;;;;5100119;28;20320;-89
2022/09/11 12:31:21;;;;;;;9.43;9.13;;;20.80;99.90;;;;;;5099762;28;20310;-89
2022/09/11 12:33:56;;;;;;;9.40;9.10;;;20.40;99.90;;;;;;5101249;28;20225;-90
2022/09/11 12:36:52;;;;;;;9.68;9.38;;;20.10;99.90;;;;;;5109609;27;20243;-89
2022/09/11 12:39:31;;;;;;;10.00;9.70;;;20.20;99.90;;;;;;5099326;28;20233;-89
2022/09/11 12:42:54;;;;;;;9.77;9.48;;;20.80;99.90;;;;;;5099496;28;20218;-89
2022/09/11 12:45:42;;;;;;;9.98;9.68;;;21.30;99.90;;;;;;5099483;28;20241;-89
2022/09/11 12:48:19;;;;;;;10.02;9.73;;;22.00;99.90;;;;;;5099727;28;20244;-90
2022/09/11 12:50:57;;;;;;;10.02;9.73;;;22.70;99.90;;;;;;5099412;28;20304;-89
2022/09/11 12:53:36;;;;;;;10.13;9.82;;;23.10;99.90;;;;;;5099245;28;20225;-89
2022/09/11 12:59:27;;;;;;;10.50;10.20;;;24.20;99.90;;;;;;5098127;28;20217;-89
2022/09/11 13:02:01;;;;;;;10.68;10.38;;;24.40;99.90;;;;;;5099063;28;20336;-89
2022/09/11 13:04:36;;;;;;;10.50;10.20;;;24.50;99.90;;;;;;5098855;28;20241;-90
2022/09/11 13:09:52;;;;;;;10.70;10.40;;;24.70;99.90;;;;;;5098779;28;20282;-90
2022/09/11 13:15:45;;;;;;;10.40;10.10;;;25.30;99.90;;;;;;5100510;28;20228;-89
2022/09/11 13:18:35;;;;;;;10.10;9.80;;;25.70;99.90;;;;;;5103320;28;20225;-89
2022/09/11 13:21:37;;;;;;;10.10;9.80;;;25.60;99.90;;;;;;5103392;28;20236;-90
2022/09/11 13:24:33;;;;;;;10.15;9.85;;;25.20;99.90;;;;;;5102823;28;20237;-89
2022/09/11 13:27:18;;;;;;;10.40;10.10;;;24.20;99.90;;;;;;5103018;28;20225;-89
2022/09/11 13:30:05;;;;;;;10.30;10.00;;;23.40;99.90;;;;;;5102925;28;20244;-89
2022/09/11 13:32:40;;;;;;;10.15;9.85;;;23.10;99.90;;;;;;5101895;28;20237;-89
2022/09/11 13:35:15;;;;;;;9.75;9.45;;;22.40;99.90;;;;;;5101249;28;20237;-89
2022/09/11 13:41:05;;;;;;;9.32;9.02;;;20.70;99.90;;;;;;5100816;28;20217;-89
2022/09/11 13:46:32;;;;;;;9.07;8.77;;;20.50;99.90;;;;;;5120202;28;20223;-90
2022/09/11 13:55:27;;;;;;;9.65;9.35;;;20.70;99.90;;;;;;5110453;28;20255;-90